createdAt,value
2023-01-02T00:00:06.229Z,12.23
2023-01-02T00:02:46.065Z,10.15
2023-01-02T00:05:19.735Z,12.07
2023-01-02T00:07:53.170Z,9.50
2023-01-02T00:10:28.368Z,8.88
2023-01-02T00:13:01.848Z,12.57
2023-01-02T00:15:35.766Z,10.63
2023-01-02T00:18:11.354Z,9.52
2023-01-02T00:20:45.299Z,8.43
2023-01-02T00:23:18.769Z,10.88
2023-01-02T00:25:53.952Z,8.68
2023-01-02T00:28:27.889Z,9.40
2023-01-02T00:31:07.863Z,9.82
2023-01-02T00:33:41.390Z,9.23
2023-01-02T00:36:15.401Z,9.10
2023-01-02T00:38:49.919Z,11.02
2023-01-02T00:41:25.663Z,10.00
2023-01-02T00:43:59.184Z,9.57
2023-01-02T00:46:32.871Z,9.55
2023-01-02T00:49:06.416Z,8.38
2023-01-02T00:51:40.369Z,11.23
2023-01-02T00:54:14.007Z,10.93
2023-01-02T00:56:49.681Z,10.65
2023-01-02T00:59:23.375Z,8.82
2023-01-02T01:01:56.879Z,9.32
2023-01-02T01:04:33.599Z,10.32
2023-01-02T01:07:07.250Z,10.63
2023-01-02T01:09:40.797Z,10.48
2023-01-02T01:12:15.832Z,9.80
2023-01-02T01:14:49.315Z,7.72
2023-01-02T01:17:23.189Z,7.38
2023-01-02T01:19:56.974Z,9.55
2023-01-02T01:22:30.507Z,9.35
2023-01-02T01:25:04.561Z,9.43
2023-01-02T01:27:39.458Z,10.02
2023-01-02T01:30:14.553Z,9.45
2023-01-02T01:32:48.783Z,8.60
2023-01-02T01:35:22.259Z,10.05
2023-01-02T01:37:55.900Z,8.07
2023-01-02T01:40:29.572Z,10.85
2023-01-02T01:43:04.442Z,7.82
2023-01-02T01:45:39.534Z,9.10
2023-01-02T01:48:16.556Z,10.70
2023-01-02T01:50:50.070Z,10.18
2023-01-02T01:53:24.777Z,12.23
2023-01-02T01:56:02.806Z,10.02
2023-01-02T01:58:43.106Z,8.95
2023-01-02T02:01:18.455Z,10.27
2023-01-02T02:03:52.827Z,10.25
2023-01-02T02:06:26.541Z,11.85
2023-01-02T02:09:05.560Z,10.25
2023-01-02T02:11:40.068Z,11.73
2023-01-02T02:14:15.179Z,10.30
2023-01-02T02:16:55.247Z,12.45
2023-01-02T02:19:58.600Z,14.93
2023-01-02T02:23:09.431Z,12.68
2023-01-02T02:26:20.552Z,13.05
2023-01-02T02:29:27.744Z,13.60
2023-01-02T02:32:11.967Z,12.57
2023-01-02T02:34:51.064Z,10.70
2023-01-02T02:37:30.396Z,12.55
2023-01-02T02:40:13.857Z,11.02
2023-01-02T02:42:55.285Z,12.60
2023-01-02T02:45:38.572Z,10.25
2023-01-02T02:48:21.991Z,13.75
2023-01-02T02:51:02.465Z,11.25
2023-01-02T02:53:41.961Z,11.95
2023-01-02T02:56:18.135Z,9.35
2023-01-02T02:58:52.494Z,11.35
2023-01-02T03:01:30.808Z,7.10
2023-01-02T03:04:17.171Z,8.50
2023-01-02T03:07:12.708Z,6.22
2023-01-02T03:09:54.415Z,9.02
2023-01-02T03:12:36.694Z,13.65
2023-01-02T03:15:17.910Z,21.30
2023-01-02T03:18:03.738Z,26.48
2023-01-02T03:20:45.510Z,15.95
2023-01-02T03:23:22.978Z,22.93
2023-01-02T03:25:59.375Z,15.20
2023-01-02T03:28:33.913Z,16.83
2023-01-02T03:31:10.801Z,19.83
2023-01-02T03:33:47.118Z,16.15
2023-01-02T03:36:26.118Z,15.85
2023-01-02T03:39:06.098Z,11.82
2023-01-02T03:41:44.512Z,17.63
2023-01-02T03:44:18.710Z,15.00
2023-01-02T03:46:56.634Z,14.93
2023-01-02T03:49:34.082Z,18.80
2023-01-02T03:52:09.108Z,15.43
2023-01-02T03:54:42.817Z,18.02
2023-01-02T03:57:23.523Z,13.05
2023-01-02T04:00:04.093Z,10.05
2023-01-02T04:02:50.241Z,9.98
2023-01-02T04:05:31.105Z,11.38
2023-01-02T04:08:10.120Z,18.92
2023-01-02T04:10:46.472Z,16.92
2023-01-02T04:13:23.460Z,16.27
2023-01-02T04:15:58.299Z,12.82
2023-01-02T04:18:41.517Z,8.38
2023-01-02T04:21:23.255Z,7.82
2023-01-02T04:24:04.061Z,11.07
2023-01-02T04:26:43.934Z,23.15
2023-01-02T04:29:17.611Z,9.38
2023-01-02T04:31:56.507Z,8.77
2023-01-02T04:34:34.365Z,10.73
2023-01-02T04:37:08.016Z,10.93
2023-01-02T04:39:42.912Z,8.23
2023-01-02T04:42:16.536Z,7.78
2023-01-02T04:44:50.024Z,8.45
2023-01-02T04:47:23.817Z,7.75
2023-01-02T04:49:57.318Z,11.95
2023-01-02T04:52:36.896Z,12.10
2023-01-02T04:55:12.833Z,10.00
2023-01-02T04:57:46.468Z,16.58
2023-01-02T05:00:20.063Z,13.23
2023-01-02T05:02:53.948Z,15.07
2023-01-02T05:05:27.491Z,10.02
2023-01-02T05:08:01.126Z,8.27
2023-01-02T05:10:36.012Z,13.88
2023-01-02T05:13:09.648Z,8.02
2023-01-02T05:15:43.165Z,8.35
2023-01-02T05:18:16.838Z,8.55
2023-01-02T05:20:50.328Z,15.73
2023-01-02T05:23:41.821Z,11.60
2023-01-02T05:26:17.333Z,8.63
2023-01-02T05:28:53.365Z,10.10
2023-01-02T05:31:27.325Z,10.02
2023-01-02T05:34:01.200Z,15.68
2023-01-02T05:36:34.728Z,17.27
2023-01-02T05:39:09.489Z,8.30
2023-01-02T05:41:44.510Z,9.63
2023-01-02T05:44:18.323Z,7.75
2023-01-02T05:46:52.007Z,14.57
2023-01-02T05:49:25.522Z,8.88
2023-01-02T05:51:59.137Z,8.48
2023-01-02T05:54:32.789Z,8.07
2023-01-02T05:57:07.738Z,15.73
2023-01-02T05:59:41.669Z,16.25
2023-01-02T06:02:15.258Z,18.02
2023-01-02T06:04:48.853Z,10.00
2023-01-02T06:07:22.293Z,11.60
2023-01-02T06:09:55.771Z,18.08
2023-01-02T06:12:30.634Z,9.27
2023-01-02T06:15:04.815Z,15.23
2023-01-02T06:17:38.455Z,13.88
2023-01-02T06:20:12.474Z,9.65
2023-01-02T06:22:45.955Z,10.02
2023-01-02T06:25:19.483Z,14.23
2023-01-02T06:27:54.484Z,11.90
2023-01-02T06:30:27.967Z,10.70
2023-01-02T06:33:01.440Z,19.52
2023-01-02T06:35:35.304Z,17.40
2023-01-02T06:38:08.740Z,15.02
2023-01-02T06:40:42.197Z,13.68
2023-01-02T06:43:17.140Z,20.08
2023-01-02T06:45:50.944Z,16.33
2023-01-02T06:48:24.548Z,15.60
2023-01-02T06:50:59.779Z,21.85
2023-01-02T06:53:34.873Z,32.88
2023-01-02T06:56:10.295Z,25.25
2023-01-02T06:58:45.481Z,15.38
2023-01-02T07:01:20.956Z,17.40
2023-01-02T07:03:55.917Z,18.17
2023-01-02T07:06:29.582Z,15.48
2023-01-02T07:09:03.302Z,22.48
2023-01-02T07:11:36.768Z,26.98
2023-01-02T07:14:11.939Z,18.70
2023-01-02T07:16:45.407Z,15.95
2023-01-02T07:19:18.931Z,25.35
2023-01-02T07:21:52.377Z,22.77
2023-01-02T07:24:26.391Z,30.83
2023-01-02T07:26:59.903Z,26.73
2023-01-02T07:29:35.101Z,20.83
2023-01-02T07:32:08.760Z,27.75
2023-01-02T07:34:42.640Z,31.77
2023-01-02T07:37:16.196Z,30.08
2023-01-02T07:39:49.721Z,29.17
2023-01-02T07:42:23.316Z,38.58
2023-01-02T07:44:58.550Z,23.15
2023-01-02T07:47:32.048Z,19.92
2023-01-02T07:50:06.195Z,27.58
2023-01-02T07:52:39.650Z,18.85
2023-01-02T07:55:13.138Z,31.80
2023-01-02T07:57:48.247Z,18.63
2023-01-02T08:00:23.369Z,20.38
2023-01-02T08:02:56.898Z,18.92
2023-01-02T08:05:30.649Z,22.92
2023-01-02T08:08:04.286Z,20.27
2023-01-02T08:10:38.576Z,25.00
2023-01-02T08:13:12.086Z,14.85
2023-01-02T08:15:47.053Z,14.48
2023-01-02T08:18:20.555Z,17.35
2023-01-02T08:20:54.070Z,13.20
2023-01-02T08:23:27.612Z,15.95
2023-01-02T08:26:01.545Z,14.25
2023-01-02T08:28:36.087Z,13.27
2023-01-02T08:31:12.648Z,12.15
2023-01-02T08:33:46.634Z,16.15
2023-01-02T08:36:20.304Z,15.05
2023-01-02T08:38:53.854Z,17.27
2023-01-02T08:41:34.877Z,13.13
2023-01-02T08:44:08.922Z,14.63
2023-01-02T08:46:43.926Z,21.45
2023-01-02T08:49:17.415Z,18.88
2023-01-02T08:51:50.886Z,17.77
2023-01-02T08:54:24.421Z,17.75
2023-01-02T08:56:58.005Z,19.85
2023-01-02T08:59:31.522Z,16.30
2023-01-02T09:02:06.659Z,13.65
2023-01-02T09:04:40.357Z,15.98
2023-01-02T09:07:13.920Z,16.60
2023-01-02T09:09:47.565Z,18.58
2023-01-02T09:12:21.105Z,17.23
2023-01-02T09:14:54.676Z,15.82
2023-01-02T09:17:29.604Z,15.15
2023-01-02T09:20:03.072Z,18.00
2023-01-02T09:22:36.694Z,14.90
2023-01-02T09:25:10.873Z,13.05
2023-01-02T09:27:44.387Z,14.18
2023-01-02T09:30:18.305Z,14.23
2023-01-02T09:32:53.357Z,14.00
2023-01-02T09:35:26.823Z,12.18
2023-01-02T09:38:00.337Z,17.73
2023-01-02T09:40:35.733Z,12.50
2023-01-02T09:43:12.146Z,13.23
2023-01-02T09:45:47.008Z,17.17
2023-01-02T09:48:22.971Z,21.55
2023-01-02T09:50:56.443Z,20.35
2023-01-02T09:53:30.731Z,18.95
2023-01-02T09:56:10.143Z,16.20
2023-01-02T09:58:50.273Z,17.10
2023-01-02T10:01:31.069Z,15.77
2023-01-02T10:04:19.254Z,17.50
2023-01-02T10:07:01.512Z,13.52
2023-01-02T10:09:43.192Z,15.95
2023-01-02T10:12:21.553Z,14.95
2023-01-02T10:14:58.081Z,13.10
2023-01-02T10:17:38.770Z,14.05
2023-01-02T10:20:24.404Z,16.35
2023-01-02T10:23:02.598Z,13.55
2023-01-02T10:25:41.799Z,15.65
2023-01-02T10:28:26.678Z,13.52
2023-01-02T10:31:07.273Z,12.80
2023-01-02T10:33:46.224Z,12.88
2023-01-02T10:36:27.941Z,14.02
2023-01-02T10:39:04.898Z,12.82
2023-01-02T10:41:38.373Z,12.30
2023-01-02T10:44:18.104Z,10.52
2023-01-02T10:46:51.705Z,8.80
2023-01-02T10:49:26.868Z,9.15
2023-01-02T10:52:06.004Z,8.60
2023-01-02T10:54:56.671Z,9.15
2023-01-02T10:57:41.525Z,8.25
2023-01-02T11:00:29.040Z,8.77
2023-01-02T11:03:08.767Z,9.35
2023-01-02T11:05:47.200Z,9.60
2023-01-02T11:08:24.069Z,9.93
2023-01-02T11:11:01.635Z,10.15
2023-01-02T11:13:50.358Z,12.07
2023-01-02T11:16:28.330Z,9.80
2023-01-02T11:19:04.404Z,10.90
2023-01-02T11:21:43.937Z,9.20
2023-01-02T11:24:22.676Z,10.18
2023-01-02T11:26:56.772Z,9.18
2023-01-02T11:29:33.350Z,8.15
2023-01-02T11:32:07.223Z,8.48
2023-01-02T11:34:54.561Z,9.15
2023-01-02T11:37:29.327Z,9.55
2023-01-02T11:40:07.853Z,9.38
2023-01-02T11:43:13.983Z,10.15
2023-01-02T11:45:48.315Z,9.75
2023-01-02T11:48:24.782Z,10.75
2023-01-02T11:50:58.497Z,10.32
2023-01-02T11:53:39.948Z,9.77
2023-01-02T11:56:18.906Z,8.98
2023-01-02T11:58:58.677Z,9.02
2023-01-02T12:01:38.300Z,9.43
2023-01-02T12:04:13.616Z,9.20
2023-01-02T12:07:05.191Z,9.52
2023-01-02T12:09:50.365Z,8.95
2023-01-02T12:12:38.232Z,9.10
2023-01-02T12:15:40.728Z,7.95
2023-01-02T12:18:27.569Z,9.45
2023-01-02T12:21:08.749Z,9.73
2023-01-02T12:24:13.786Z,9.45
2023-01-02T12:26:55.125Z,8.85
2023-01-02T12:29:48.700Z,8.95
2023-01-02T12:32:46.745Z,9.15
2023-01-02T12:35:36.002Z,7.93
2023-01-02T12:38:12.048Z,8.63
2023-01-02T12:40:55.738Z,9.23
2023-01-02T12:43:45.202Z,9.35
2023-01-02T12:46:42.065Z,8.85
2023-01-02T12:49:35.177Z,14.15
2023-01-02T12:52:19.208Z,10.68
2023-01-02T12:55:09.153Z,13.05
2023-01-02T12:57:53.679Z,9.57
2023-01-02T13:01:00.588Z,9.43
2023-01-02T13:03:49.263Z,7.97
2023-01-02T13:06:45.032Z,8.32
2023-01-02T13:09:26.649Z,16.58
2023-01-02T13:12:05.717Z,12.77
2023-01-02T13:14:43.848Z,10.43
2023-01-02T13:17:36.539Z,11.10
2023-01-02T13:20:21.580Z,10.10
2023-01-02T13:23:09.646Z,9.05
2023-01-02T13:25:47.623Z,8.65
2023-01-02T13:28:24.593Z,10.75
2023-01-02T13:33:59.636Z,9.95
2023-01-02T13:36:39.629Z,10.43
2023-01-02T13:39:21.425Z,9.75
2023-01-02T13:42:14.118Z,8.85
2023-01-02T13:44:50.977Z,11.75
2023-01-02T13:47:34.460Z,11.68
2023-01-02T13:50:14.640Z,9.13
2023-01-02T13:53:08.217Z,4.88
2023-01-02T13:56:04.649Z,4.53
2023-01-02T13:58:44.450Z,5.43
2023-01-02T14:01:43.525Z,5.40
2023-01-02T14:04:38.500Z,5.28
2023-01-02T14:07:47.805Z,4.57
2023-01-02T14:10:40.381Z,6.47
2023-01-02T14:13:31.407Z,6.45
2023-01-02T14:16:27.917Z,5.50
2023-01-02T14:19:20.491Z,4.70
2023-01-02T14:22:05.430Z,5.28
2023-01-02T14:24:42.329Z,4.43
2023-01-02T14:27:25.127Z,4.72
2023-01-02T14:32:39.286Z,4.78
2023-01-02T14:35:27.422Z,4.80
2023-01-02T14:38:17.651Z,4.97
2023-01-02T14:40:51.715Z,4.80
2023-01-02T14:43:31.897Z,4.55
2023-01-02T14:46:16.328Z,4.15
2023-01-02T14:48:55.778Z,4.18
2023-01-02T14:51:44.107Z,4.25
2023-01-02T14:54:21.012Z,5.10
2023-01-02T14:56:59.199Z,5.07
2023-01-02T14:59:39.541Z,4.43
2023-01-02T15:02:17.503Z,5.20
2023-01-02T15:04:55.705Z,4.30
2023-01-02T15:07:32.879Z,4.68
2023-01-02T15:10:12.147Z,4.65
2023-01-02T15:13:05.062Z,3.90
2023-01-02T15:15:42.586Z,5.15
2023-01-02T15:18:21.784Z,5.05
2023-01-02T15:20:56.853Z,4.22
2023-01-02T15:23:31.411Z,3.83
2023-01-02T15:26:32.589Z,4.20
2023-01-02T15:29:20.267Z,5.28
2023-01-02T15:32:00.024Z,3.97
2023-01-02T15:34:35.087Z,4.82
2023-01-02T15:37:08.782Z,4.72
2023-01-02T15:39:45.311Z,3.95
2023-01-02T15:42:40.481Z,4.78
2023-01-02T15:45:17.485Z,5.57
2023-01-02T15:47:53.013Z,6.30
2023-01-02T15:50:29.551Z,5.60
2023-01-02T15:53:06.262Z,6.32
2023-01-02T15:55:41.770Z,5.25
2023-01-02T15:58:26.557Z,7.35
2023-01-02T16:01:18.672Z,6.55
2023-01-02T16:04:02.600Z,4.20
2023-01-02T16:06:41.642Z,4.22
2023-01-02T16:09:22.642Z,4.82
2023-01-02T16:11:59.017Z,5.03
2023-01-02T16:14:36.481Z,4.68
2023-01-02T16:17:25.194Z,5.05
2023-01-02T16:20:03.112Z,5.22
2023-01-02T16:22:44.987Z,5.75
2023-01-02T16:25:21.197Z,4.67
2023-01-02T16:27:57.187Z,4.68
2023-01-02T16:30:41.104Z,4.90
2023-01-02T16:33:23.756Z,5.13
2023-01-02T16:36:08.137Z,5.32
2023-01-02T16:38:53.515Z,6.00
2023-01-02T16:42:11.888Z,5.00
2023-01-02T16:44:55.254Z,5.55
2023-01-02T16:47:36.293Z,6.07
2023-01-02T16:50:16.978Z,4.70
2023-01-02T16:52:54.593Z,5.78
2023-01-02T16:55:28.123Z,5.57
2023-01-02T16:58:01.809Z,6.32
2023-01-02T17:00:41.367Z,6.60
2023-01-02T17:03:18.915Z,5.75
2023-01-02T17:06:02.395Z,6.00
2023-01-02T17:08:37.982Z,5.68
2023-01-02T17:11:15.887Z,6.05
2023-01-02T17:13:49.479Z,6.50
2023-01-02T17:16:23.017Z,5.95
2023-01-02T17:18:56.559Z,5.13
2023-01-02T17:21:32.908Z,5.32
2023-01-02T17:24:08.385Z,5.43
2023-01-02T17:26:41.957Z,6.18
2023-01-02T17:29:15.613Z,6.28
2023-01-02T17:31:49.189Z,5.88
2023-01-02T17:34:22.759Z,7.97
2023-01-02T17:36:57.135Z,7.65
2023-01-02T17:39:32.288Z,8.27
2023-01-02T17:42:07.398Z,10.27
2023-01-02T17:44:42.696Z,6.93
2023-01-02T17:47:57.268Z,7.82
2023-01-02T17:50:10.482Z,7.47
2023-01-02T17:52:43.972Z,8.02
2023-01-02T17:55:19.044Z,7.85
2023-01-02T17:57:52.500Z,9.73
2023-01-02T18:00:25.977Z,9.65
2023-01-02T18:02:59.577Z,10.82
2023-01-02T18:05:33.122Z,11.30
2023-01-02T18:08:07.225Z,10.32
2023-01-02T18:10:42.837Z,11.38
2023-01-02T18:13:16.366Z,10.52
2023-01-02T18:15:50.252Z,10.75
2023-01-02T18:18:26.007Z,11.07
2023-01-02T18:21:01.276Z,11.52
2023-01-02T18:23:37.213Z,12.43
2023-01-02T18:26:14.611Z,15.52
2023-01-02T18:28:52.024Z,15.00
2023-01-02T18:31:26.660Z,13.10
2023-01-02T18:34:04.145Z,13.40
2023-01-02T18:36:39.199Z,12.10
2023-01-02T18:39:20.912Z,15.18
2023-01-02T18:42:12.088Z,11.95
2023-01-02T18:44:45.784Z,14.07
2023-01-02T18:47:26.847Z,13.13
2023-01-02T18:50:23.686Z,24.40
2023-01-02T18:52:57.860Z,27.40
2023-01-02T18:55:36.893Z,21.48
2023-01-02T18:58:33.824Z,24.23
2023-01-02T19:01:23.846Z,20.95
2023-01-02T19:04:24.091Z,27.85
2023-01-02T19:07:09.167Z,41.97
2023-01-02T19:09:42.683Z,44.37
2023-01-02T19:12:43.492Z,32.30
2023-01-02T19:15:51.201Z,32.63
2023-01-02T19:18:28.639Z,28.83
2023-01-02T19:21:17.227Z,31.60
2023-01-02T19:23:58.095Z,29.73
2023-01-02T19:26:35.388Z,29.10
2023-01-02T19:29:17.610Z,29.63
2023-01-02T19:32:01.121Z,27.77
2023-01-02T19:34:44.469Z,28.65
2023-01-02T19:37:25.625Z,25.73
2023-01-02T19:40:02.128Z,34.35
2023-01-02T19:42:38.701Z,29.02
2023-01-02T19:45:16.306Z,25.48
2023-01-02T19:47:52.115Z,24.48
2023-01-02T19:50:27.786Z,22.73
2023-01-02T19:53:01.404Z,23.17
2023-01-02T19:55:36.640Z,22.35
2023-01-02T19:58:10.118Z,21.67
2023-01-02T20:00:43.938Z,20.83
2023-01-02T20:03:18.830Z,17.50
2023-01-02T20:05:52.364Z,19.35
2023-01-02T20:08:26.203Z,18.35
2023-01-02T20:11:01.869Z,17.08
2023-01-02T20:13:35.710Z,19.25
2023-01-02T20:16:09.344Z,15.65
2023-01-02T20:18:44.317Z,17.38
2023-01-02T20:21:18.420Z,15.73
2023-01-02T20:23:56.347Z,13.82
2023-01-02T20:26:30.542Z,14.93
2023-01-02T20:29:04.738Z,12.68
2023-01-02T20:31:38.942Z,13.38
2023-01-02T20:34:13.938Z,14.82
2023-01-02T20:36:47.956Z,15.32
2023-01-02T20:39:23.224Z,14.13
2023-01-02T20:41:56.779Z,13.63
2023-01-02T20:44:30.484Z,12.43
2023-01-02T20:47:04.051Z,14.13
2023-01-02T20:49:39.098Z,12.93
2023-01-02T20:52:12.690Z,12.00
2023-01-02T20:54:47.003Z,14.23
2023-01-02T20:57:20.523Z,13.80
2023-01-02T20:59:54.195Z,12.13
2023-01-02T21:02:27.858Z,13.38
2023-01-02T21:05:02.974Z,13.70
2023-01-02T21:07:36.742Z,13.57
2023-01-02T21:10:10.487Z,12.25
2023-01-02T21:13:01.563Z,13.70
2023-01-02T21:15:46.237Z,12.40
2023-01-02T21:18:22.019Z,12.90
2023-01-02T21:20:58.691Z,13.68
2023-01-02T21:23:33.509Z,13.23
2023-01-02T21:26:08.317Z,10.80
2023-01-02T21:28:44.251Z,12.45
2023-01-02T21:31:19.324Z,10.00
2023-01-02T21:33:53.244Z,10.52
2023-01-02T21:36:28.312Z,11.52
2023-01-02T21:39:02.134Z,11.15
2023-01-02T21:41:53.109Z,11.23
2023-01-02T21:44:26.603Z,12.40
2023-01-02T21:47:00.250Z,10.23
2023-01-02T21:49:33.788Z,10.93
2023-01-02T21:52:08.671Z,10.93
2023-01-02T21:54:42.359Z,11.30
2023-01-02T21:57:16.325Z,9.15
2023-01-02T21:59:49.847Z,10.40
2023-01-02T22:02:31.698Z,8.63
2023-01-02T22:05:10.208Z,10.23
2023-01-02T22:07:45.515Z,7.40
2023-01-02T22:10:19.167Z,8.82
2023-01-02T22:12:52.798Z,10.45
2023-01-02T22:15:26.319Z,11.73
2023-01-02T22:18:00.018Z,9.98
2023-01-02T22:20:33.711Z,10.43
2023-01-02T22:23:08.608Z,9.93
2023-01-02T22:25:42.288Z,9.10
2023-01-02T22:28:15.789Z,11.35
2023-01-02T22:30:49.272Z,10.25
2023-01-02T22:33:22.958Z,10.13
2023-01-02T22:35:56.439Z,8.98
2023-01-02T22:38:32.328Z,12.18
2023-01-02T22:41:06.034Z,10.10
2023-01-02T22:43:42.105Z,11.52
2023-01-02T22:46:22.614Z,9.98
2023-01-02T22:48:56.533Z,10.48
2023-01-02T22:51:57.619Z,10.05
2023-01-02T22:54:27.238Z,11.02
2023-01-02T22:57:00.668Z,10.25
2023-01-02T22:59:34.285Z,11.70
2023-01-02T23:02:12.563Z,9.15
2023-01-02T23:04:46.291Z,10.45
2023-01-02T23:07:24.414Z,10.35
2023-01-02T23:09:59.840Z,8.80
2023-01-02T23:12:33.298Z,9.93
2023-01-02T23:15:08.916Z,9.07
2023-01-02T23:18:00.097Z,9.63
2023-01-02T23:20:34.563Z,9.80
2023-01-02T23:23:08.498Z,8.50
2023-01-02T23:25:44.690Z,8.50
2023-01-02T23:28:32.304Z,9.63
2023-01-02T23:31:12.129Z,7.80
2023-01-02T23:33:46.046Z,9.43
2023-01-02T23:36:20.063Z,8.02
2023-01-02T23:38:53.852Z,7.50
2023-01-02T23:41:28.754Z,8.75
2023-01-02T23:44:02.607Z,7.13
2023-01-02T23:46:36.718Z,8.20
2023-01-02T23:49:11.978Z,7.68
2023-01-02T23:51:46.608Z,9.43
2023-01-02T23:54:21.075Z,8.55
2023-01-02T23:56:56.188Z,8.10
2023-01-02T23:59:29.809Z,7.30
